Gardiner, OR (97441)

11:38 PM PST on February 12, 2016 (GMT -0800)
APRSWXNET | | Change Station
CLOSE
Current Station
Personal Weather Station
Location: Gardiner, OR
Elevation: 0 ft
Nearby Weather Stations

Elev 0 ft 43.71 °N, 124.09 °W | Updated 22 minutes ago

Mostly Cloudy
Mostly Cloudy
49 °F
Feels Like 49 °F
N
0
Wind Variable Wind from ENE
Gusts 5.0 mph

Today
High -- | Low -- °F
--% Chance of Precip.
Yesterday
High -- | Low -- °F
Precip. -- in
Pressure 30.37 in
Visibility 3.0 miles
Clouds Mostly Cloudy 3300 ft
Windchill 49 °F
Dew Point 48 °F
Humidity 97%
Rainfall in
Snow Depth Not available.
7:19 AM 5:42 PM
Waxing Crescent, 28% visible
METAR KOTH 130735Z 17003KT 3SM BKN033 09/09 A3037 RMK AO1 VIS 1 1/4V5
Pressure 30.37 in
Visibility 3.0 miles
Clouds Mostly Cloudy 3300 ft
Windchill 49 °F
Dew Point 48 °F
Humidity 97%
Rainfall in
Snow Depth Not available.
7:19 AM 5:42 PM
Waxing Crescent, 28% visible
METAR KOTH 130735Z 17003KT 3SM BKN033 09/09 A3037 RMK AO1 VIS 1 1/4V5

10-Day Weather Forecast

Almanac

Astronomy

Feb. 12, 2016 Rise Set
Actual Time
Civil Twilight
Nautical Twilight
Astronomical Twilight
Moon
Length of Visible Light
Length of Day
Tomorrow will be .
, % of the Moon is Illuminated

Today's Extremes

State Highs State Lows

Community

WunderPhotos

Upload Photos

1,892,526 photos uploaded!

WunderBlog® & News

Nearby

Air Quality

  Air Quality AQ Index Pollutant
Not available.

Snow Depth

Station Depth Elevation

Earthquake Activity

City Distance Mag. Time & Date
Minimum magnitude displayed is 2.5.

Coastal Water Temperatures

Place Temperature

Stations

Nearby Weather Stations

Station Location Temp. Windchill Dew Point Humidity Wind Precip. Elev Updated Type
                   

Watches & Warnings

There are currently no watches in effect.